createdAt,value
2019-04-01T00:00:10.127Z,2.67
2019-04-01T00:02:38.690Z,2.37
2019-04-01T00:05:07.229Z,2.03
2019-04-01T00:07:35.678Z,2.83
2019-04-01T00:10:04.342Z,2.27
2019-04-01T00:12:32.778Z,2.10
2019-04-01T00:15:01.227Z,2.27
2019-04-01T00:17:29.626Z,2.63
2019-04-01T00:19:58.146Z,2.20
2019-04-01T00:22:26.550Z,2.70
2019-04-01T00:24:54.975Z,2.33
2019-04-01T00:27:23.410Z,2.63
2019-04-01T00:29:51.979Z,3.37
2019-04-01T00:32:20.418Z,2.73
2019-04-01T00:34:48.950Z,2.33
2019-04-01T00:37:21.738Z,1.97
2019-04-01T00:39:50.150Z,2.20
2019-04-01T00:42:46.777Z,3.00
2019-04-01T00:45:17.866Z,2.47
2019-04-01T00:47:46.346Z,2.20
2019-04-01T00:50:14.842Z,3.00
2019-04-01T00:52:43.264Z,2.07
2019-04-01T00:55:11.747Z,3.40
2019-04-01T00:57:40.238Z,2.60
2019-04-01T01:00:08.805Z,2.47
2019-04-01T01:02:37.295Z,2.00
2019-04-01T01:05:05.851Z,3.10
2019-04-01T01:07:34.270Z,2.37
2019-04-01T01:10:02.791Z,2.23
2019-04-01T01:12:31.295Z,3.17
2019-04-01T01:14:59.794Z,2.20
2019-04-01T01:17:28.231Z,3.50
2019-04-01T01:19:56.738Z,2.50
2019-04-01T01:22:25.159Z,2.20
2019-04-01T01:24:53.571Z,2.57
2019-04-01T01:27:21.993Z,2.73
2019-04-01T01:29:50.418Z,2.37
2019-04-01T01:32:19.027Z,2.57
2019-04-01T01:34:47.550Z,2.57
2019-04-01T01:37:16.150Z,2.67
2019-04-01T01:39:44.577Z,2.60
2019-04-01T01:42:13.102Z,3.13
2019-04-01T01:44:41.674Z,2.47
2019-04-01T01:47:10.182Z,2.30
2019-04-01T01:49:38.735Z,2.60
2019-04-01T01:52:07.157Z,2.17
2019-04-01T01:54:35.566Z,2.40
2019-04-01T01:57:04.154Z,2.80
2019-04-01T01:59:32.563Z,2.83
2019-04-01T02:02:01.008Z,2.30
2019-04-01T02:04:29.419Z,2.77
2019-04-01T02:06:57.835Z,2.20
2019-04-01T02:09:28.354Z,2.83
2019-04-01T02:11:56.846Z,2.13
2019-04-01T02:14:25.417Z,5.43
2019-04-01T02:16:56.614Z,2.20
2019-04-01T02:19:25.133Z,2.17
2019-04-01T02:21:53.546Z,2.57
2019-04-01T02:24:21.982Z,2.30
2019-04-01T02:26:50.424Z,3.13
2019-04-01T02:29:18.874Z,2.70
2019-04-01T02:31:47.296Z,2.73
2019-04-01T02:34:15.685Z,2.60
2019-04-01T02:36:44.151Z,2.33
2019-04-01T02:39:12.612Z,3.00
2019-04-01T02:41:41.071Z,2.87
2019-04-01T02:44:09.435Z,3.00
2019-04-01T02:46:37.871Z,2.97
2019-04-01T02:49:07.350Z,3.20
2019-04-01T02:51:35.836Z,3.53
2019-04-01T02:54:04.291Z,4.10
2019-04-01T02:56:32.735Z,2.90
2019-04-01T02:59:01.185Z,2.30
2019-04-01T03:01:29.632Z,2.50
2019-04-01T03:03:57.984Z,3.27
2019-04-01T03:06:26.344Z,2.53
2019-04-01T03:08:54.693Z,3.50
2019-04-01T03:11:23.080Z,3.93
2019-04-01T03:13:51.472Z,2.13
2019-04-01T03:16:19.832Z,2.53
2019-04-01T03:18:48.291Z,2.40
2019-04-01T03:21:16.663Z,2.50
2019-04-01T03:23:45.040Z,2.27
2019-04-01T03:26:13.432Z,2.63
2019-04-01T03:28:41.869Z,2.33
2019-04-01T03:31:10.327Z,2.50
2019-04-01T03:33:38.795Z,2.30
2019-04-01T03:36:07.222Z,2.80
2019-04-01T03:38:35.603Z,3.13
2019-04-01T03:41:04.042Z,2.93
2019-04-01T03:43:32.408Z,2.77
2019-04-01T03:46:00.838Z,2.90
2019-04-01T03:48:29.275Z,2.50
2019-04-01T03:50:57.626Z,3.43
2019-04-01T03:53:25.998Z,2.73
2019-04-01T03:55:54.448Z,2.60
2019-04-01T03:58:22.882Z,2.77
2019-04-01T04:00:51.346Z,2.33
2019-04-01T04:03:19.723Z,2.93
2019-04-01T04:05:48.100Z,2.93
2019-04-01T04:08:16.478Z,4.00
2019-04-01T04:10:44.933Z,2.70
2019-04-01T04:13:13.301Z,2.80
2019-04-01T04:15:41.823Z,3.30
2019-04-01T04:18:10.263Z,2.90
2019-04-01T04:20:38.789Z,3.07
2019-04-01T04:23:07.163Z,2.60
2019-04-01T04:25:35.580Z,3.03
2019-04-01T04:28:04.018Z,2.50
2019-04-01T04:30:32.453Z,3.43
2019-04-01T04:33:00.824Z,2.40
2019-04-01T04:35:29.195Z,2.40
2019-04-01T04:37:57.706Z,2.47
2019-04-01T04:40:26.183Z,3.00
2019-04-01T04:42:59.254Z,2.40
2019-04-01T04:45:27.626Z,3.27
2019-04-01T04:47:55.995Z,2.73
2019-04-01T04:50:24.585Z,3.10
2019-04-01T04:52:53.115Z,3.37
2019-04-01T04:55:21.565Z,2.53
2019-04-01T04:57:49.935Z,2.73
2019-04-01T05:00:18.366Z,3.60
2019-04-01T05:02:46.892Z,2.80
2019-04-01T05:05:15.436Z,2.80
2019-04-01T05:07:43.873Z,3.17
2019-04-01T05:10:12.420Z,2.90
2019-04-01T05:12:41.846Z,2.90
2019-04-01T05:15:13.300Z,3.37
2019-04-01T05:17:42.713Z,5.13
2019-04-01T05:20:11.170Z,2.90
2019-04-01T05:22:39.898Z,3.67
2019-04-01T05:25:08.334Z,3.77
2019-04-01T05:27:37.296Z,3.43
2019-04-01T05:30:05.896Z,3.07
2019-04-01T05:32:35.802Z,3.30
2019-04-01T05:35:04.558Z,4.03
2019-04-01T05:37:33.228Z,4.90
2019-04-01T05:40:02.477Z,9.10
2019-04-01T05:42:30.975Z,7.23
2019-04-01T05:44:59.409Z,5.63
2019-04-01T05:47:35.650Z,3.40
2019-04-01T05:50:04.362Z,3.00
2019-04-01T05:52:32.794Z,4.63
2019-04-01T05:55:01.239Z,3.30
2019-04-01T05:57:30.726Z,3.90
2019-04-01T05:59:59.158Z,3.70
2019-04-01T06:02:27.630Z,3.87
2019-04-01T06:04:56.103Z,5.60
2019-04-01T06:07:24.531Z,4.03
2019-04-01T06:09:53.136Z,3.40
2019-04-01T06:12:24.132Z,3.50
2019-04-01T06:14:51.827Z,3.93
2019-04-01T06:17:20.310Z,3.00
2019-04-01T06:19:48.742Z,4.70
2019-04-01T06:22:17.195Z,3.73
2019-04-01T06:24:45.638Z,2.70
2019-04-01T06:27:14.116Z,3.30
2019-04-01T06:29:42.542Z,3.17
2019-04-01T06:32:11.011Z,3.13
2019-04-01T06:34:52.340Z,2.87
2019-04-01T06:37:09.716Z,2.77
2019-04-01T06:39:38.167Z,2.60
2019-04-01T06:42:07.288Z,2.70
2019-04-01T06:44:35.903Z,3.20
2019-04-01T06:47:04.366Z,3.50
2019-04-01T06:49:32.728Z,3.43
2019-04-01T06:52:01.262Z,2.83
2019-04-01T06:54:29.726Z,3.57
2019-04-01T06:56:58.158Z,3.00
2019-04-01T06:59:26.597Z,4.57
2019-04-01T07:01:55.075Z,2.80
2019-04-01T07:04:23.519Z,2.80
2019-04-01T07:06:52.060Z,2.87
2019-04-01T07:09:20.494Z,3.27
2019-04-01T07:11:48.926Z,3.30
2019-04-01T07:14:17.363Z,3.37
2019-04-01T07:16:45.806Z,3.23
2019-04-01T07:19:14.250Z,3.70
2019-04-01T07:21:42.679Z,3.57
2019-04-01T07:24:11.121Z,3.03
2019-04-01T07:26:39.582Z,3.10
2019-04-01T07:29:08.014Z,2.97
2019-04-01T07:31:36.460Z,3.00
2019-04-01T07:34:04.918Z,2.90
2019-04-01T07:36:33.383Z,3.40
2019-04-01T07:39:01.922Z,3.00
2019-04-01T07:41:30.346Z,2.87
2019-04-01T07:43:58.787Z,3.27
2019-04-01T07:46:27.226Z,2.70
2019-04-01T07:48:55.771Z,2.40
2019-04-01T07:51:24.294Z,2.57
2019-04-01T07:53:52.754Z,2.97
2019-04-01T07:56:21.202Z,2.67
2019-04-01T07:58:49.641Z,2.40
2019-04-01T08:01:18.082Z,3.30
2019-04-01T08:03:46.911Z,3.13
2019-04-01T08:06:15.362Z,2.27
2019-04-01T08:08:46.245Z,2.73
2019-04-01T08:11:14.055Z,3.33
2019-04-01T08:13:42.504Z,3.37
2019-04-01T08:16:10.935Z,2.97
2019-04-01T08:18:39.411Z,3.00
2019-04-01T08:21:07.851Z,3.43
2019-04-01T08:23:36.360Z,2.83
2019-04-01T08:26:04.815Z,2.73
2019-04-01T08:28:33.252Z,3.37
2019-04-01T08:31:01.686Z,2.83
2019-04-01T08:33:30.150Z,3.30
2019-04-01T08:35:58.593Z,3.60
2019-04-01T08:38:27.237Z,2.80
2019-04-01T08:40:55.720Z,3.33
2019-04-01T08:43:24.170Z,3.20
2019-04-01T08:45:52.602Z,3.63
2019-04-01T08:48:20.998Z,3.80
2019-04-01T08:50:49.453Z,3.67
2019-04-01T08:53:17.910Z,3.60
2019-04-01T08:55:46.368Z,3.70
2019-04-01T08:58:14.743Z,3.83
2019-04-01T09:00:43.190Z,3.93
2019-04-01T09:03:11.581Z,3.77
2019-04-01T09:05:40.116Z,3.77
2019-04-01T09:08:08.539Z,3.40
2019-04-01T09:10:37.101Z,4.17
2019-04-01T09:13:05.550Z,3.73
2019-04-01T09:15:33.997Z,3.87
2019-04-01T09:18:02.446Z,3.67
2019-04-01T09:20:30.895Z,3.37
2019-04-01T09:22:59.499Z,3.90
2019-04-01T09:25:27.942Z,3.27
2019-04-01T09:27:56.334Z,4.30
2019-04-01T09:30:24.779Z,3.63
2019-04-01T09:32:53.229Z,3.87
2019-04-01T09:35:21.602Z,3.83
2019-04-01T09:37:50.050Z,4.33
2019-04-01T09:40:18.506Z,4.00
2019-04-01T09:42:46.962Z,3.93
2019-04-01T09:45:15.515Z,4.60
2019-04-01T09:47:43.987Z,3.70
2019-04-01T09:50:12.426Z,3.93
2019-04-01T09:52:40.870Z,4.57
2019-04-01T09:55:09.379Z,4.17
2019-04-01T09:57:37.854Z,4.63
2019-04-01T10:00:06.959Z,3.87
2019-04-01T10:02:41.530Z,4.20
2019-04-01T10:05:10.263Z,5.00
2019-04-01T10:07:38.821Z,4.43
2019-04-01T10:10:07.345Z,4.50
2019-04-01T10:12:35.774Z,4.60
2019-04-01T10:15:04.746Z,4.33
2019-04-01T10:17:33.182Z,4.80
2019-04-01T10:20:01.882Z,4.60
2019-04-01T10:22:30.311Z,4.67
2019-04-01T10:25:01.183Z,4.77
2019-04-01T10:27:29.735Z,5.47
2019-04-01T10:29:58.314Z,4.87
2019-04-01T10:32:26.802Z,4.83
2019-04-01T10:34:55.180Z,4.87
2019-04-01T10:37:23.675Z,4.03
2019-04-01T10:39:52.127Z,5.83
2019-04-01T10:42:20.595Z,4.93
2019-04-01T10:44:48.966Z,4.77
2019-04-01T10:47:17.489Z,4.43
2019-04-01T10:49:46.363Z,4.90
2019-04-01T10:52:14.826Z,4.97
2019-04-01T10:54:43.361Z,4.43
2019-04-01T10:57:11.913Z,4.23
2019-04-01T10:59:40.479Z,5.03
2019-04-01T11:02:08.938Z,4.57
2019-04-01T11:04:37.498Z,5.87
2019-04-01T11:07:06.405Z,5.47
2019-04-01T11:09:38.565Z,4.90
2019-04-01T11:12:05.024Z,4.20
2019-04-01T11:14:33.474Z,4.80
2019-04-01T11:17:04.491Z,5.07
2019-04-01T11:19:33.410Z,4.47
2019-04-01T11:22:02.136Z,5.07
2019-04-01T11:24:30.956Z,4.37
2019-04-01T11:26:59.424Z,4.70
2019-04-01T11:29:27.878Z,4.23
2019-04-01T11:31:56.461Z,4.30
2019-04-01T11:34:24.966Z,4.67
2019-04-01T11:36:53.946Z,4.87
2019-04-01T11:39:22.529Z,4.23
2019-04-01T11:41:51.116Z,4.57
2019-04-01T11:44:19.679Z,4.77
2019-04-01T11:46:48.593Z,4.77
2019-04-01T11:49:17.518Z,4.83
2019-04-01T11:51:46.078Z,5.00
2019-04-01T11:54:14.841Z,4.30
2019-04-01T11:56:43.263Z,3.97
2019-04-01T11:59:11.748Z,5.07
2019-04-01T12:01:40.591Z,4.23
2019-04-01T12:04:08.969Z,4.47
2019-04-01T12:06:37.543Z,4.90
2019-04-01T12:09:06.372Z,4.53
2019-04-01T12:11:35.030Z,5.23
2019-04-01T12:14:05.246Z,4.90
2019-04-01T12:16:33.850Z,4.90
2019-04-01T12:19:02.303Z,4.87
2019-04-01T12:21:30.851Z,4.40
2019-04-01T12:23:59.408Z,4.90
2019-04-01T12:26:27.895Z,4.90
2019-04-01T12:28:56.262Z,4.90
2019-04-01T12:31:24.706Z,5.20
2019-04-01T12:33:53.054Z,5.63
2019-04-01T12:36:21.490Z,5.13
2019-04-01T12:38:53.443Z,4.90
2019-04-01T12:41:20.178Z,4.50
2019-04-01T12:43:48.631Z,4.73
2019-04-01T12:46:16.991Z,5.33
2019-04-01T12:48:45.427Z,4.67
2019-04-01T12:51:13.929Z,5.17
2019-04-01T12:53:42.310Z,4.73
2019-04-01T12:56:10.766Z,5.50
2019-04-01T12:58:39.170Z,4.87
2019-04-01T13:01:07.906Z,5.10
2019-04-01T13:03:36.424Z,5.03
2019-04-01T13:06:04.866Z,5.27
2019-04-01T13:08:33.346Z,5.17
2019-04-01T13:11:01.797Z,5.20
2019-04-01T13:13:30.238Z,5.33
2019-04-01T13:15:58.695Z,5.17
2019-04-01T13:18:27.186Z,5.07
2019-04-01T13:20:55.677Z,5.03
2019-04-01T13:23:24.150Z,5.37
2019-04-01T13:25:52.575Z,5.60
2019-04-01T13:28:21.038Z,5.60
2019-04-01T13:30:49.545Z,5.20
2019-04-01T13:33:18.835Z,4.50
2019-04-01T13:35:47.396Z,4.87
2019-04-01T13:38:15.915Z,4.53
2019-04-01T13:40:44.715Z,5.20
2019-04-01T13:43:16.810Z,4.97
2019-04-01T13:45:43.515Z,4.63
2019-04-01T13:48:11.987Z,5.57
2019-04-01T13:50:40.482Z,5.43
2019-04-01T13:53:08.936Z,4.90
2019-04-01T13:55:38.142Z,4.57
2019-04-01T13:58:06.725Z,4.53
2019-04-01T14:00:35.175Z,5.27
2019-04-01T14:03:03.711Z,4.80
2019-04-01T14:05:32.258Z,5.23
2019-04-01T14:08:00.718Z,4.83
2019-04-01T14:10:29.162Z,5.40
2019-04-01T14:12:57.641Z,4.47
2019-04-01T14:15:26.052Z,4.80
2019-04-01T14:17:54.462Z,5.30
2019-04-01T14:20:22.936Z,5.40
2019-04-01T14:22:53.572Z,4.97
2019-04-01T14:25:21.462Z,5.30
2019-04-01T14:27:49.901Z,5.70
2019-04-01T14:30:18.363Z,6.30
2019-04-01T14:32:46.819Z,5.30
2019-04-01T14:35:15.271Z,5.23
2019-04-01T14:37:43.715Z,5.03
2019-04-01T14:40:12.128Z,4.90
2019-04-01T14:42:40.498Z,5.80
2019-04-01T14:45:08.968Z,5.57
2019-04-01T14:47:49.976Z,6.50
2019-04-01T14:50:08.214Z,5.67
2019-04-01T14:52:36.711Z,5.50
2019-04-01T14:55:05.358Z,5.43
2019-04-01T14:57:33.863Z,6.80
2019-04-01T15:00:02.351Z,4.87
2019-04-01T15:02:30.915Z,5.37
2019-04-01T15:04:59.358Z,5.30
2019-04-01T15:07:27.835Z,5.10
2019-04-01T15:09:56.311Z,5.10
2019-04-01T15:12:24.743Z,5.13
2019-04-01T15:14:53.098Z,4.97
2019-04-01T15:17:23.034Z,5.17
2019-04-01T15:19:52.516Z,5.27
2019-04-01T15:22:27.133Z,5.00
2019-04-01T15:24:55.823Z,4.93
2019-04-01T15:27:24.271Z,5.37
2019-04-01T15:29:55.244Z,5.07
2019-04-01T15:32:23.735Z,4.43
2019-04-01T15:34:52.150Z,5.80
2019-04-01T15:37:20.727Z,5.73
2019-04-01T15:39:49.700Z,6.30
2019-04-01T15:42:18.524Z,6.03
2019-04-01T15:44:47.026Z,5.27
2019-04-01T15:47:15.539Z,5.67
2019-04-01T15:49:44.762Z,5.60
2019-04-01T15:52:13.361Z,5.57
2019-04-01T15:54:41.823Z,4.97
2019-04-01T15:57:10.299Z,5.60
2019-04-01T15:59:38.925Z,5.30
2019-04-01T16:02:09.051Z,5.23
2019-04-01T16:04:37.532Z,4.80
2019-04-01T16:07:06.070Z,5.17
2019-04-01T16:09:36.327Z,5.50
2019-04-01T16:12:04.847Z,5.47
2019-04-01T16:14:34.965Z,5.23
2019-04-01T16:17:05.217Z,5.30
2019-04-01T16:19:33.742Z,5.60
2019-04-01T16:22:02.162Z,5.20
2019-04-01T16:24:30.538Z,4.87
2019-04-01T16:26:59.016Z,5.53
2019-04-01T16:29:27.390Z,5.57
2019-04-01T16:31:57.712Z,5.13
2019-04-01T16:34:26.043Z,5.37
2019-04-01T16:36:54.525Z,4.67
2019-04-01T16:39:22.907Z,5.10
2019-04-01T16:41:51.339Z,5.27
2019-04-01T16:44:19.793Z,5.23
2019-04-01T16:46:48.194Z,5.33
2019-04-01T16:49:16.644Z,5.77
2019-04-01T16:51:45.242Z,5.40
2019-04-01T16:54:13.670Z,5.80
2019-04-01T16:56:42.209Z,5.63
2019-04-01T16:59:10.707Z,5.43
2019-04-01T17:01:41.557Z,5.10
2019-04-01T17:04:09.422Z,5.27
2019-04-01T17:06:37.934Z,5.20
2019-04-01T17:09:08.010Z,5.73
2019-04-01T17:11:37.016Z,5.87
2019-04-01T17:14:09.371Z,6.67
2019-04-01T17:16:38.129Z,5.43
2019-04-01T17:19:06.772Z,5.67
2019-04-01T17:21:35.326Z,5.87
2019-04-01T17:24:03.800Z,5.20
2019-04-01T17:26:35.948Z,5.00
2019-04-01T17:29:04.886Z,6.03
2019-04-01T17:31:33.471Z,6.60
2019-04-01T17:34:02.843Z,5.93
2019-04-01T17:36:31.449Z,6.53
2019-04-01T17:39:01.767Z,6.63
2019-04-01T17:41:35.074Z,6.77
2019-04-01T17:44:04.863Z,5.90
2019-04-01T17:46:33.432Z,6.50
2019-04-01T17:49:02.105Z,6.83
2019-04-01T17:51:30.978Z,6.30
2019-04-01T17:54:01.121Z,5.53
2019-04-01T17:56:29.711Z,5.47
2019-04-01T17:59:01.394Z,6.30
2019-04-01T18:01:28.467Z,7.20
2019-04-01T18:03:57.033Z,8.40
2019-04-01T18:06:44.691Z,6.90
2019-04-01T18:09:13.216Z,8.10
2019-04-01T18:11:41.617Z,7.23
2019-04-01T18:14:10.894Z,8.23
2019-04-01T18:16:39.447Z,7.77
2019-04-01T18:19:07.891Z,6.83
2019-04-01T18:21:38.192Z,7.43
2019-04-01T18:24:08.475Z,6.30
2019-04-01T18:26:38.026Z,6.10
2019-04-01T18:29:12.386Z,5.73
2019-04-01T18:31:45.013Z,5.73
2019-04-01T18:34:13.384Z,5.20
2019-04-01T18:36:44.354Z,5.27
2019-04-01T18:39:15.690Z,6.97
2019-04-01T18:41:48.715Z,5.77
2019-04-01T18:44:19.417Z,6.07
2019-04-01T18:46:50.238Z,6.03
2019-04-01T18:49:18.715Z,6.00
2019-04-01T18:51:49.700Z,5.90
2019-04-01T18:54:19.191Z,5.47
2019-04-01T18:56:50.238Z,5.33
2019-04-01T18:59:19.722Z,5.97
2019-04-01T19:01:51.185Z,5.87
2019-04-01T19:04:18.287Z,6.13
2019-04-01T19:06:49.747Z,7.17
2019-04-01T19:09:39.336Z,6.63
2019-04-01T19:12:09.349Z,6.90
2019-04-01T19:14:41.226Z,7.27
2019-04-01T19:17:11.100Z,6.07
2019-04-01T19:19:40.309Z,7.77
2019-04-01T19:22:09.010Z,7.23
2019-04-01T19:24:46.730Z,7.87
2019-04-01T19:27:16.983Z,6.50
2019-04-01T19:29:45.910Z,6.93
2019-04-01T19:32:14.906Z,8.30
2019-04-01T19:34:46.275Z,7.83
2019-04-01T19:37:18.288Z,7.60
2019-04-01T19:39:46.839Z,7.73
2019-04-01T19:42:17.891Z,8.50
2019-04-01T19:44:48.900Z,8.93
2019-04-01T19:47:17.530Z,9.50
2019-04-01T19:49:46.035Z,9.90
2019-04-01T19:52:15.663Z,9.63
2019-04-01T19:54:44.115Z,10.13
2019-04-01T19:57:12.685Z,8.70
2019-04-01T19:59:41.222Z,8.63
2019-04-01T20:02:09.886Z,7.70
2019-04-01T20:04:38.550Z,7.50
2019-04-01T20:07:07.111Z,7.70
2019-04-01T20:09:36.731Z,7.13
2019-04-01T20:12:05.331Z,7.83
2019-04-01T20:14:33.985Z,7.40
2019-04-01T20:17:02.763Z,6.93
2019-04-01T20:19:31.396Z,6.73
2019-04-01T20:21:59.907Z,7.00
2019-04-01T20:24:28.275Z,7.33
2019-04-01T20:26:56.982Z,7.03
2019-04-01T20:29:25.963Z,7.20
2019-04-01T20:31:54.415Z,7.37
2019-04-01T20:34:23.044Z,7.60
2019-04-01T20:36:53.619Z,7.67
2019-04-01T20:39:24.313Z,7.33
2019-04-01T20:41:53.912Z,7.17
2019-04-01T20:44:24.383Z,7.77
2019-04-01T20:46:53.311Z,7.53
2019-04-01T20:49:23.079Z,6.60
2019-04-01T20:51:53.987Z,7.97
2019-04-01T20:54:29.010Z,6.40
2019-04-01T20:56:57.900Z,7.00
2019-04-01T20:59:29.230Z,7.37
2019-04-01T21:01:58.099Z,7.60
2019-04-01T21:04:27.179Z,7.30
2019-04-01T21:06:55.870Z,7.07
2019-04-01T21:09:24.234Z,7.67
2019-04-01T21:11:53.839Z,7.60
2019-04-01T21:14:22.733Z,7.60
2019-04-01T21:16:51.260Z,8.17
2019-04-01T21:19:19.638Z,7.90
2019-04-01T21:21:48.004Z,7.10
2019-04-01T21:24:16.351Z,8.07
2019-04-01T21:26:44.811Z,7.67
2019-04-01T21:29:13.287Z,7.10
2019-04-01T21:31:41.718Z,8.67
2019-04-01T21:34:10.280Z,7.77
2019-04-01T21:36:39.581Z,8.40
2019-04-01T21:39:07.995Z,8.10
2019-04-01T21:41:36.566Z,8.17
2019-04-01T21:44:05.030Z,7.90
2019-04-01T21:46:33.530Z,7.33
2019-04-01T21:49:01.965Z,7.50
2019-04-01T21:51:30.398Z,8.10
2019-04-01T21:53:59.121Z,7.77
2019-04-01T21:56:28.194Z,8.77
2019-04-01T21:58:56.578Z,8.23
2019-04-01T22:01:25.062Z,8.93
2019-04-01T22:03:55.370Z,7.97
2019-04-01T22:06:23.794Z,8.67
2019-04-01T22:08:52.219Z,7.67
2019-04-01T22:11:20.663Z,8.00
2019-04-01T22:13:49.026Z,8.00
2019-04-01T22:16:18.177Z,8.40
2019-04-01T22:18:47.474Z,8.80
2019-04-01T22:21:15.828Z,7.60
2019-04-01T22:23:44.262Z,8.67
2019-04-01T22:26:12.698Z,8.90
2019-04-01T22:28:41.054Z,9.17
2019-04-01T22:31:09.410Z,8.73
2019-04-01T22:33:37.764Z,7.87
2019-04-01T22:36:06.198Z,9.03
2019-04-01T22:38:35.201Z,8.40
2019-04-01T22:41:03.956Z,8.43
2019-04-01T22:43:32.306Z,8.80
2019-04-01T22:46:00.659Z,9.23
2019-04-01T22:48:29.090Z,7.90
2019-04-01T22:50:57.831Z,8.93
2019-04-01T22:53:26.299Z,9.47
2019-04-01T22:55:54.653Z,8.43
2019-04-01T22:58:23.022Z,9.17
2019-04-01T23:00:51.386Z,8.20
2019-04-01T23:03:19.778Z,9.60
2019-04-01T23:05:48.199Z,8.73
2019-04-01T23:08:16.555Z,9.00
2019-04-01T23:10:44.927Z,9.73
2019-04-01T23:13:13.298Z,9.63
2019-04-01T23:15:43.157Z,9.73
2019-04-01T23:18:12.562Z,9.40
2019-04-01T23:20:43.098Z,9.10
2019-04-01T23:23:11.662Z,9.23
2019-04-01T23:25:40.330Z,9.73
2019-04-01T23:28:11.071Z,9.93
2019-04-01T23:30:39.534Z,8.87
2019-04-01T23:33:08.009Z,10.00
2019-04-01T23:35:37.468Z,9.47
2019-04-01T23:38:06.263Z,9.03
2019-04-01T23:40:35.495Z,9.93
2019-04-01T23:43:03.983Z,9.97
2019-04-01T23:45:32.881Z,9.40
2019-04-01T23:48:01.258Z,10.00
2019-04-01T23:50:32.807Z,9.10
2019-04-01T23:53:02.170Z,8.90
2019-04-01T23:55:31.054Z,9.23
2019-04-01T23:57:59.969Z,9.63
